createdAt,value
2023-05-10T00:01:37.627Z,101419.29
2023-05-10T00:04:05.352Z,101422.67
2023-05-10T00:06:34.009Z,101419.48
2023-05-10T00:09:01.499Z,101417.83
2023-05-10T00:11:29.807Z,101415.85
2023-05-10T00:13:58.196Z,101411.97
2023-05-10T00:16:26.530Z,101412.91
2023-05-10T00:18:54.858Z,101414.58
2023-05-10T00:21:23.269Z,101415.19
2023-05-10T00:23:51.673Z,101413.36
2023-05-10T00:26:20.280Z,101409.95
2023-05-10T00:28:50.039Z,101404.95
2023-05-10T00:31:20.262Z,101403.40
2023-05-10T00:33:48.566Z,101403.38
2023-05-10T00:36:16.839Z,101401.94
2023-05-10T00:38:45.305Z,101397.39
2023-05-10T00:41:13.688Z,101396.87
2023-05-10T00:43:42.897Z,101394.61
2023-05-10T00:46:11.762Z,101395.65
2023-05-10T00:48:40.197Z,101387.52
2023-05-10T00:51:08.687Z,101391.38
2023-05-10T00:53:36.260Z,101391.42
2023-05-10T00:56:05.802Z,101389.22
2023-05-10T00:58:34.452Z,101388.20
2023-05-10T01:01:03.073Z,101387.53
2023-05-10T01:03:31.638Z,101385.32
2023-05-10T01:05:59.115Z,101382.91
2023-05-10T01:08:28.373Z,101384.35
2023-05-10T01:10:57.861Z,101381.94
2023-05-10T01:13:34.028Z,101380.05
2023-05-10T01:16:03.562Z,101378.17
2023-05-10T01:18:32.665Z,101378.36
2023-05-10T01:21:20.395Z,101378.05
2023-05-10T01:24:23.507Z,101374.26
2023-05-10T01:27:20.120Z,101378.11
2023-05-10T01:30:31.593Z,101373.81
2023-05-10T01:33:02.820Z,101371.73
2023-05-10T01:35:36.655Z,101374.01
2023-05-10T01:38:14.308Z,101370.09
2023-05-10T01:40:52.442Z,101376.98
2023-05-10T01:43:25.612Z,101372.48
2023-05-10T01:46:04.859Z,101375.47
2023-05-10T01:48:34.051Z,101372.52
2023-05-10T01:51:02.618Z,101370.77
2023-05-10T01:53:30.028Z,101362.61
2023-05-10T01:55:59.170Z,101366.51
2023-05-10T01:58:30.757Z,101367.34
2023-05-10T02:01:01.340Z,101365.92
2023-05-10T02:03:29.996Z,101361.24
2023-05-10T02:05:59.288Z,101360.55
2023-05-10T02:08:27.947Z,101362.48
2023-05-10T02:10:59.274Z,101363.40
2023-05-10T02:13:28.927Z,101359.47
2023-05-10T02:15:58.343Z,101357.61
2023-05-10T02:18:27.371Z,101356.10
2023-05-10T02:20:56.252Z,101358.75
2023-05-10T02:23:24.866Z,101353.08
2023-05-10T02:25:52.334Z,101352.44
2023-05-10T02:28:23.069Z,101355.45
2023-05-10T02:30:52.434Z,101356.56
2023-05-10T02:33:21.548Z,101354.71
2023-05-10T02:35:51.920Z,101354.20
2023-05-10T02:38:21.904Z,101353.70
2023-05-10T02:40:50.354Z,101353.47
2023-05-10T02:43:19.924Z,101357.06
2023-05-10T02:45:49.680Z,101355.45
2023-05-10T02:48:18.247Z,101357.12
2023-05-10T02:50:45.823Z,101361.77
2023-05-10T02:53:18.164Z,101356.79
2023-05-10T02:55:49.642Z,101362.09
2023-05-10T02:58:19.899Z,101360.34
2023-05-10T03:00:48.713Z,101361.90
2023-05-10T03:03:17.161Z,101361.36
2023-05-10T03:05:45.558Z,101361.38
2023-05-10T03:08:13.966Z,101360.67
2023-05-10T03:10:49.617Z,101360.02
2023-05-10T03:13:29.486Z,101358.27
2023-05-10T03:16:00.744Z,101364.00
2023-05-10T03:18:38.012Z,101361.91
2023-05-10T03:21:10.956Z,101364.32
2023-05-10T03:23:42.989Z,101365.70
2023-05-10T03:26:14.421Z,101365.84
2023-05-10T03:28:43.541Z,101362.03
2023-05-10T03:31:12.406Z,101357.65
2023-05-10T03:33:48.944Z,101360.41
2023-05-10T03:36:18.550Z,101359.52
2023-05-10T03:38:47.360Z,101358.08
2023-05-10T03:41:16.571Z,101361.00
2023-05-10T03:43:45.040Z,101359.40
2023-05-10T03:46:13.461Z,101356.55
2023-05-10T03:48:41.859Z,101354.02
2023-05-10T03:51:10.219Z,101352.19
2023-05-10T03:53:38.472Z,101348.06
2023-05-10T03:56:07.554Z,101347.23
2023-05-10T03:58:35.445Z,101350.89
2023-05-10T04:01:03.867Z,101350.73
2023-05-10T04:03:32.263Z,101349.05
2023-05-10T04:06:02.867Z,101352.72
2023-05-10T04:08:31.865Z,101349.98
2023-05-10T04:11:07.865Z,101350.90
2023-05-10T04:13:36.459Z,101349.56
2023-05-10T04:16:05.768Z,101351.71
2023-05-10T04:18:34.211Z,101356.96
2023-05-10T04:21:03.002Z,101356.27
2023-05-10T04:23:31.415Z,101352.66
2023-05-10T04:26:03.132Z,101351.73
2023-05-10T04:28:31.531Z,101346.99
2023-05-10T04:31:03.558Z,101347.36
2023-05-10T04:33:32.350Z,101348.35
2023-05-10T04:36:01.066Z,101350.02
2023-05-10T04:38:29.856Z,101343.56
2023-05-10T04:41:06.664Z,101351.71
2023-05-10T04:43:35.233Z,101350.70
2023-05-10T04:46:04.455Z,101353.81
2023-05-10T04:48:32.913Z,101350.48
2023-05-10T04:51:01.504Z,101351.25
2023-05-10T04:53:29.780Z,101354.14
2023-05-10T04:55:58.356Z,101354.95
2023-05-10T04:58:26.834Z,101356.98
2023-05-10T05:00:54.203Z,101359.00
2023-05-10T05:03:22.913Z,101357.89
2023-05-10T05:05:51.365Z,101356.52
2023-05-10T05:08:18.903Z,101358.23
2023-05-10T05:10:47.577Z,101354.48
2023-05-10T05:13:15.994Z,101350.67
2023-05-10T05:15:44.405Z,101349.40
2023-05-10T05:18:11.989Z,101350.81
2023-05-10T05:20:40.883Z,101348.91
2023-05-10T05:23:09.281Z,101348.77
2023-05-10T05:25:37.086Z,101349.91
2023-05-10T05:28:05.715Z,101347.60
2023-05-10T05:30:34.088Z,101344.23
2023-05-10T05:33:04.109Z,101343.37
2023-05-10T05:35:32.405Z,101344.58
2023-05-10T05:37:59.987Z,101345.73
2023-05-10T05:40:28.442Z,101345.83
2023-05-10T05:42:56.949Z,101345.58
2023-05-10T05:45:25.532Z,101346.00
2023-05-10T05:47:53.904Z,101347.34
2023-05-10T05:50:22.364Z,101345.29
2023-05-10T05:52:50.750Z,101348.83
2023-05-10T05:55:20.699Z,101345.85
2023-05-10T05:57:49.439Z,101348.80
2023-05-10T06:00:18.915Z,101351.65
2023-05-10T06:02:48.203Z,101349.48
2023-05-10T06:05:17.342Z,101352.95
2023-05-10T06:07:46.357Z,101354.19
2023-05-10T06:10:14.711Z,101354.11
2023-05-10T06:12:43.048Z,101355.30
2023-05-10T06:15:12.831Z,101349.08
2023-05-10T06:17:41.249Z,101349.75
2023-05-10T06:20:11.928Z,101352.73
2023-05-10T06:22:40.334Z,101352.43
2023-05-10T06:25:10.825Z,101346.81
2023-05-10T06:27:39.190Z,101341.54
2023-05-10T06:30:15.123Z,101336.19
2023-05-10T06:32:45.391Z,101339.89
2023-05-10T06:35:13.945Z,101326.63
2023-05-10T06:37:42.246Z,101323.55
2023-05-10T06:40:12.228Z,101321.48
2023-05-10T06:42:40.607Z,101325.55
2023-05-10T06:45:11.004Z,101315.64
2023-05-10T06:47:39.725Z,101314.39
2023-05-10T06:50:09.607Z,101314.83
2023-05-10T06:52:38.308Z,101314.88
2023-05-10T06:55:08.720Z,101303.61
2023-05-10T06:57:37.333Z,101305.98
2023-05-10T07:00:08.160Z,101303.42
2023-05-10T07:02:36.680Z,101306.52
2023-05-10T07:05:06.314Z,101301.09
2023-05-10T07:07:34.627Z,101302.80
2023-05-10T07:10:03.354Z,101298.95
2023-05-10T07:12:31.841Z,101293.84
2023-05-10T07:15:00.166Z,101289.53
2023-05-10T07:17:28.691Z,101294.17
2023-05-10T07:19:57.043Z,101293.40
2023-05-10T07:22:25.497Z,101288.78
2023-05-10T07:24:54.042Z,101287.20
2023-05-10T07:27:22.428Z,101286.72
2023-05-10T07:29:50.939Z,101282.99
2023-05-10T07:32:19.271Z,101287.80
2023-05-10T07:34:47.687Z,101294.79
2023-05-10T07:37:16.044Z,101297.89
2023-05-10T07:39:44.368Z,101295.48
2023-05-10T07:42:14.060Z,101293.23
2023-05-10T07:44:42.527Z,101294.29
2023-05-10T07:47:11.303Z,101288.13
2023-05-10T07:49:39.694Z,101289.38
2023-05-10T07:52:08.099Z,101289.35
2023-05-10T07:54:36.452Z,101297.64
2023-05-10T07:57:05.158Z,101295.85
2023-05-10T07:59:33.879Z,101297.11
2023-05-10T08:02:02.309Z,101292.83
2023-05-10T08:04:30.616Z,101291.52
2023-05-10T08:06:59.044Z,101293.25
2023-05-10T08:09:27.324Z,101289.70
2023-05-10T08:11:55.680Z,101288.70
2023-05-10T08:14:23.966Z,101288.80
2023-05-10T08:16:52.362Z,101286.91
2023-05-10T08:19:21.703Z,101290.38
2023-05-10T08:21:50.168Z,101290.98
2023-05-10T08:24:18.764Z,101290.45
2023-05-10T08:26:47.980Z,101289.71
2023-05-10T08:29:16.351Z,101290.13
2023-05-10T08:31:45.603Z,101290.84
2023-05-10T08:34:13.964Z,101286.45
2023-05-10T08:36:42.578Z,101289.08
2023-05-10T08:39:22.830Z,101289.97
2023-05-10T08:42:00.455Z,101293.14
2023-05-10T08:44:29.294Z,101299.45
2023-05-10T08:46:58.180Z,101304.94
2023-05-10T08:49:27.079Z,101303.40
2023-05-10T08:51:56.765Z,101304.20
2023-05-10T08:54:25.837Z,101298.16
2023-05-10T08:56:54.806Z,101297.52
2023-05-10T08:59:24.013Z,101299.05
2023-05-10T09:01:53.914Z,101298.64
2023-05-10T09:04:22.492Z,101299.33
2023-05-10T09:06:51.032Z,101290.46
2023-05-10T09:09:19.462Z,101284.27
2023-05-10T09:11:48.427Z,101278.69
2023-05-10T09:14:17.602Z,101276.26
2023-05-10T09:16:46.249Z,101270.95
2023-05-10T09:19:15.270Z,101279.55
2023-05-10T09:21:43.605Z,101271.63
2023-05-10T09:24:12.569Z,101264.70
2023-05-10T09:26:48.927Z,101262.59
2023-05-10T09:29:17.944Z,101259.70
2023-05-10T09:31:48.223Z,101270.70
2023-05-10T09:34:20.497Z,101264.36
2023-05-10T09:37:01.072Z,101263.95
2023-05-10T09:39:33.072Z,101274.00
2023-05-10T09:42:03.983Z,101275.10
2023-05-10T09:44:33.153Z,101265.79
2023-05-10T09:47:01.648Z,101269.95
2023-05-10T09:49:30.484Z,101276.27
2023-05-10T09:52:03.226Z,101271.71
2023-05-10T09:54:32.281Z,101278.11
2023-05-10T09:57:01.035Z,101278.13
2023-05-10T09:59:29.946Z,101273.65
2023-05-10T10:01:59.231Z,101272.20
2023-05-10T10:04:28.178Z,101259.81
2023-05-10T10:07:04.103Z,101260.79
2023-05-10T10:09:32.743Z,101263.31
2023-05-10T10:12:01.726Z,101253.99
2023-05-10T10:14:30.348Z,101256.32
2023-05-10T10:19:30.114Z,101254.58
2023-05-10T10:21:59.340Z,101247.58
2023-05-10T10:24:27.621Z,101249.00
2023-05-10T10:27:02.531Z,101245.01
2023-05-10T10:29:35.474Z,101242.73
2023-05-10T10:32:12.417Z,101239.29
2023-05-10T10:34:41.304Z,101232.27
2023-05-10T10:37:10.011Z,101222.13
2023-05-10T10:39:38.396Z,101225.85
2023-05-10T10:42:06.843Z,101218.27
2023-05-10T10:44:39.221Z,101219.66
2023-05-10T10:47:12.299Z,101221.67
2023-05-10T10:49:44.420Z,101230.33
2023-05-10T10:52:22.935Z,101218.60
2023-05-10T10:54:58.344Z,101221.45
2023-05-10T10:57:27.220Z,101222.98
2023-05-10T11:00:20.281Z,101216.33
2023-05-10T11:02:50.471Z,101222.74
2023-05-10T11:05:38.830Z,101221.23
2023-05-10T11:08:22.115Z,101219.02
2023-05-10T11:11:03.982Z,101212.15
2023-05-10T11:13:33.816Z,101220.14
2023-05-10T11:16:15.525Z,101216.24
2023-05-10T11:18:54.285Z,101210.31
2023-05-10T11:21:23.234Z,101208.77
2023-05-10T11:23:56.539Z,101207.05
2023-05-10T11:26:25.913Z,101197.55
2023-05-10T11:28:59.457Z,101200.13
2023-05-10T11:31:28.190Z,101195.93
2023-05-10T11:33:58.000Z,101194.51
2023-05-10T11:36:29.406Z,101201.37
2023-05-10T11:38:58.297Z,101197.95
2023-05-10T11:41:28.942Z,101195.54
2023-05-10T11:43:58.105Z,101194.30
2023-05-10T11:46:27.628Z,101192.89
2023-05-10T11:49:04.269Z,101194.91
2023-05-10T11:51:36.030Z,101187.14
2023-05-10T11:54:08.314Z,101186.24
2023-05-10T11:56:36.887Z,101181.74
2023-05-10T11:59:05.278Z,101190.32
2023-05-10T12:01:33.841Z,101189.84
2023-05-10T12:04:02.469Z,101184.81
2023-05-10T12:06:32.125Z,101185.20
2023-05-10T12:09:04.139Z,101181.25
2023-05-10T12:11:32.512Z,101179.45
2023-05-10T12:14:00.918Z,101179.30
2023-05-10T12:16:30.958Z,101182.58
2023-05-10T12:19:00.441Z,101177.79
2023-05-10T12:21:30.738Z,101178.98
2023-05-10T12:24:02.177Z,101179.30
2023-05-10T12:26:30.905Z,101173.51
2023-05-10T12:29:14.583Z,101176.23
2023-05-10T12:31:54.681Z,101173.00
2023-05-10T12:34:27.491Z,101176.23
2023-05-10T12:36:56.192Z,101172.17
2023-05-10T12:39:24.744Z,101172.59
2023-05-10T12:41:53.484Z,101165.61
2023-05-10T12:44:21.848Z,101166.64
2023-05-10T12:46:50.131Z,101166.66
2023-05-10T12:49:19.248Z,101162.88
2023-05-10T12:51:47.590Z,101169.95
2023-05-10T12:54:15.910Z,101163.91
2023-05-10T12:56:44.551Z,101162.23
2023-05-10T12:59:12.781Z,101155.63
2023-05-10T13:01:41.368Z,101155.88
2023-05-10T13:04:10.172Z,101153.08
2023-05-10T13:06:38.594Z,101151.38
2023-05-10T13:09:07.309Z,101146.77
2023-05-10T13:11:35.917Z,101145.98
2023-05-10T13:14:04.396Z,101148.84
2023-05-10T13:16:32.947Z,101154.51
2023-05-10T13:19:01.323Z,101155.45
2023-05-10T13:21:29.818Z,101153.55
2023-05-10T13:23:58.376Z,101149.45
2023-05-10T13:26:26.985Z,101151.86
2023-05-10T13:28:55.924Z,101146.75
2023-05-10T13:31:24.608Z,101141.77
2023-05-10T13:33:53.221Z,101149.66
2023-05-10T13:36:23.136Z,101145.15
2023-05-10T13:38:51.672Z,101138.88
2023-05-10T13:41:20.131Z,101136.84
2023-05-10T13:43:49.677Z,101141.48
2023-05-10T13:46:18.172Z,101138.42
2023-05-10T13:48:46.615Z,101134.66
2023-05-10T13:51:15.053Z,101133.89
2023-05-10T13:53:43.494Z,101126.05
2023-05-10T13:56:11.952Z,101127.89
2023-05-10T13:58:40.290Z,101125.83
2023-05-10T14:01:08.773Z,101124.52
2023-05-10T14:03:37.525Z,101124.13
2023-05-10T14:06:07.751Z,101111.12
2023-05-10T14:08:36.853Z,101121.05
2023-05-10T14:11:05.915Z,101118.09
2023-05-10T14:13:34.166Z,101119.33
2023-05-10T14:16:02.600Z,101119.20
2023-05-10T14:18:31.396Z,101112.38
2023-05-10T14:21:00.253Z,101116.19
2023-05-10T14:23:29.315Z,101114.83
2023-05-10T14:25:57.945Z,101112.84
2023-05-10T14:28:26.527Z,101112.27
2023-05-10T14:30:54.981Z,101115.07
2023-05-10T14:33:23.395Z,101113.89
2023-05-10T14:35:52.539Z,101115.94
2023-05-10T14:38:20.991Z,101118.85
2023-05-10T14:40:50.072Z,101118.68
2023-05-10T14:43:18.508Z,101115.42
2023-05-10T14:45:47.908Z,101117.39
2023-05-10T14:48:17.816Z,101107.92
2023-05-10T14:50:46.848Z,101111.90
2023-05-10T14:53:15.060Z,101107.69
2023-05-10T14:55:43.829Z,101111.17
2023-05-10T14:58:12.193Z,101109.23
2023-05-10T15:00:41.180Z,101111.57
2023-05-10T15:03:10.393Z,101105.02
2023-05-10T15:05:39.502Z,101098.70
2023-05-10T15:08:08.029Z,101101.09
2023-05-10T15:10:37.060Z,101107.52
2023-05-10T15:13:05.961Z,101103.15
2023-05-10T15:15:34.477Z,101101.36
2023-05-10T15:18:03.020Z,101101.47
2023-05-10T15:20:31.633Z,101099.98
2023-05-10T15:23:00.048Z,101099.92
2023-05-10T15:25:29.151Z,101100.11
2023-05-10T15:27:57.357Z,101098.08
2023-05-10T15:30:25.778Z,101096.88
2023-05-10T15:32:54.462Z,101096.37
2023-05-10T15:35:22.718Z,101095.79
2023-05-10T15:37:51.131Z,101094.84
2023-05-10T15:40:19.761Z,101093.72
2023-05-10T15:42:48.103Z,101089.97
2023-05-10T15:45:17.098Z,101091.63
2023-05-10T15:47:45.754Z,101090.06
2023-05-10T15:50:14.938Z,101089.40
2023-05-10T15:52:43.271Z,101086.38
2023-05-10T15:55:12.876Z,101087.48
2023-05-10T15:57:43.403Z,101089.42
2023-05-10T16:00:14.292Z,101093.94
2023-05-10T16:02:42.926Z,101095.13
2023-05-10T16:05:11.713Z,101095.11
2023-05-10T16:07:41.054Z,101093.33
2023-05-10T16:10:11.519Z,101091.76
2023-05-10T16:12:40.736Z,101095.66
2023-05-10T16:15:10.817Z,101093.39
2023-05-10T16:17:39.317Z,101090.10
2023-05-10T16:20:09.707Z,101089.95
2023-05-10T16:22:38.491Z,101089.83
2023-05-10T16:25:08.285Z,101094.52
2023-05-10T16:27:37.606Z,101095.28
2023-05-10T16:30:08.520Z,101098.73
2023-05-10T16:32:37.052Z,101100.05
2023-05-10T16:35:07.557Z,101094.98
2023-05-10T16:37:36.290Z,101100.23
2023-05-10T16:40:07.213Z,101096.46
2023-05-10T16:42:36.366Z,101095.36
2023-05-10T16:45:07.189Z,101098.66
2023-05-10T16:47:36.369Z,101099.37
2023-05-10T16:50:07.085Z,101101.19
2023-05-10T16:52:36.265Z,101099.48
2023-05-10T16:55:06.058Z,101107.69
2023-05-10T16:57:34.672Z,101107.44
2023-05-10T17:00:04.591Z,101105.70
2023-05-10T17:02:33.212Z,101107.80
2023-05-10T17:05:01.907Z,101108.46
2023-05-10T17:07:30.290Z,101107.83
2023-05-10T17:09:58.778Z,101114.61
2023-05-10T17:12:27.034Z,101115.16
2023-05-10T17:14:55.650Z,101119.56
2023-05-10T17:17:24.683Z,101121.77
2023-05-10T17:19:53.190Z,101123.77
2023-05-10T17:22:21.718Z,101123.88
2023-05-10T17:24:50.442Z,101123.11
2023-05-10T17:27:19.004Z,101124.85
2023-05-10T17:29:47.336Z,101128.02
2023-05-10T17:32:15.899Z,101126.25
2023-05-10T17:34:44.232Z,101126.48
2023-05-10T17:37:12.675Z,101132.33
2023-05-10T17:39:41.434Z,101140.12
2023-05-10T17:42:11.191Z,101141.27
2023-05-10T17:44:39.711Z,101143.23
2023-05-10T17:47:08.279Z,101144.40
2023-05-10T17:49:36.682Z,101148.77
2023-05-10T17:52:05.000Z,101155.50
2023-05-10T17:54:34.567Z,101156.90
2023-05-10T17:57:03.392Z,101160.02
2023-05-10T17:59:31.831Z,101156.51
2023-05-10T18:02:01.017Z,101157.44
2023-05-10T18:04:29.542Z,101158.69
2023-05-10T18:07:00.704Z,101159.92
2023-05-10T18:09:29.648Z,101159.06
2023-05-10T18:11:57.897Z,101162.38
2023-05-10T18:14:39.175Z,101163.56
2023-05-10T18:17:09.799Z,101162.22
2023-05-10T18:19:39.358Z,101161.77
2023-05-10T18:22:10.700Z,101161.06
2023-05-10T18:24:40.351Z,101168.17
2023-05-10T18:27:09.246Z,101169.45
2023-05-10T18:29:37.832Z,101175.11
2023-05-10T18:32:07.260Z,101177.77
2023-05-10T18:34:35.641Z,101179.46
2023-05-10T18:37:06.577Z,101184.68
2023-05-10T18:39:35.236Z,101189.77
2023-05-10T18:42:04.482Z,101194.86
2023-05-10T18:44:33.070Z,101197.48
2023-05-10T18:47:01.557Z,101201.23
2023-05-10T18:49:30.139Z,101197.48
2023-05-10T18:51:58.369Z,101202.98
2023-05-10T18:54:27.065Z,101201.75
2023-05-10T18:56:56.649Z,101201.48
2023-05-10T18:59:27.092Z,101205.36
2023-05-10T19:01:57.118Z,101205.67
2023-05-10T19:04:26.179Z,101209.80
2023-05-10T19:06:55.164Z,101210.97
2023-05-10T19:09:23.903Z,101214.16
2023-05-10T19:11:52.501Z,101214.18
2023-05-10T19:14:21.066Z,101216.49
2023-05-10T19:16:49.806Z,101213.41
2023-05-10T19:19:18.473Z,101218.27
2023-05-10T19:21:47.692Z,101218.17
2023-05-10T19:24:17.353Z,101217.40
2023-05-10T19:26:46.839Z,101220.74
2023-05-10T19:29:15.485Z,101219.04
2023-05-10T19:31:46.337Z,101222.98
2023-05-10T19:34:14.827Z,101223.73
2023-05-10T19:36:43.162Z,101223.49
2023-05-10T19:39:11.615Z,101227.48
2023-05-10T19:41:39.985Z,101228.78
2023-05-10T19:44:08.324Z,101231.02
2023-05-10T19:46:36.659Z,101229.02
2023-05-10T19:49:05.077Z,101230.00
2023-05-10T19:51:33.295Z,101231.11
2023-05-10T19:54:01.621Z,101228.73
2023-05-10T19:56:30.002Z,101232.71
2023-05-10T19:58:58.767Z,101234.17
2023-05-10T20:01:27.149Z,101227.30
2023-05-10T20:03:56.227Z,101229.80
2023-05-10T20:06:24.481Z,101232.64
2023-05-10T20:08:52.693Z,101239.35
2023-05-10T20:11:20.899Z,101239.77
2023-05-10T20:13:49.366Z,101241.13
2023-05-10T20:16:17.788Z,101240.36
2023-05-10T20:18:46.224Z,101232.89
2023-05-10T20:21:14.587Z,101238.37
2023-05-10T20:23:42.499Z,101236.71
2023-05-10T20:26:10.811Z,101235.02
2023-05-10T20:28:38.265Z,101236.95
2023-05-10T20:31:06.589Z,101238.92
2023-05-10T20:33:34.965Z,101238.23
2023-05-10T20:36:03.486Z,101239.68
2023-05-10T20:38:32.024Z,101238.41
2023-05-10T20:41:00.375Z,101240.84
2023-05-10T20:43:28.470Z,101241.35
2023-05-10T20:46:04.369Z,101245.59
2023-05-10T20:48:33.116Z,101247.38
2023-05-10T20:51:01.924Z,101245.34
2023-05-10T20:53:30.794Z,101247.73
2023-05-10T20:56:03.724Z,101252.60
2023-05-10T20:58:32.948Z,101260.09
2023-05-10T21:01:01.649Z,101261.81
2023-05-10T21:03:30.190Z,101263.96
2023-05-10T21:05:58.768Z,101268.73
2023-05-10T21:08:27.249Z,101268.73
2023-05-10T21:10:54.819Z,101267.50
2023-05-10T21:13:23.353Z,101266.14
2023-05-10T21:15:52.811Z,101267.39
2023-05-10T21:18:21.709Z,101271.37
2023-05-10T21:20:50.490Z,101270.98
2023-05-10T21:23:18.806Z,101272.14
2023-05-10T21:25:46.223Z,101274.33
2023-05-10T21:28:14.636Z,101273.55
2023-05-10T21:30:43.211Z,101275.55
2023-05-10T21:33:12.233Z,101278.58
2023-05-10T21:35:42.084Z,101277.77
2023-05-10T21:38:11.191Z,101279.21
2023-05-10T21:40:39.706Z,101279.98
2023-05-10T21:43:10.620Z,101280.88
2023-05-10T21:45:40.727Z,101280.22
2023-05-10T21:48:10.009Z,101275.25
2023-05-10T21:50:39.337Z,101278.98
2023-05-10T21:53:08.601Z,101279.39
2023-05-10T21:55:38.333Z,101284.50
2023-05-10T21:58:07.815Z,101282.84
2023-05-10T22:00:36.235Z,101282.37
2023-05-10T22:03:04.799Z,101285.60
2023-05-10T22:05:33.802Z,101282.20
2023-05-10T22:08:02.675Z,101289.41
2023-05-10T22:10:31.086Z,101286.36
2023-05-10T22:12:59.404Z,101287.27
2023-05-10T22:15:27.810Z,101291.23
2023-05-10T22:17:55.320Z,101295.00
2023-05-10T22:20:23.673Z,101296.89
2023-05-10T22:22:53.370Z,101296.98
2023-05-10T22:25:21.805Z,101298.52
2023-05-10T22:27:49.345Z,101302.10
2023-05-10T22:30:19.176Z,101301.55
2023-05-10T22:32:48.088Z,101305.88
2023-05-10T22:35:16.722Z,101309.34
2023-05-10T22:37:45.747Z,101307.66
2023-05-10T22:40:14.280Z,101311.44
2023-05-10T22:42:42.668Z,101310.81
2023-05-10T22:45:11.141Z,101318.41
2023-05-10T22:47:39.518Z,101320.45
2023-05-10T22:50:08.307Z,101317.25
2023-05-10T22:52:38.213Z,101319.18
2023-05-10T22:55:07.938Z,101320.17
2023-05-10T22:57:36.383Z,101320.26
2023-05-10T23:00:04.676Z,101321.55
2023-05-10T23:02:33.227Z,101319.73
2023-05-10T23:05:01.742Z,101322.27
2023-05-10T23:07:29.219Z,101323.74
2023-05-10T23:09:57.573Z,101324.58
2023-05-10T23:12:25.861Z,101324.66
2023-05-10T23:14:54.254Z,101326.13
2023-05-10T23:17:22.054Z,101327.63
2023-05-10T23:19:50.740Z,101329.16
2023-05-10T23:22:19.301Z,101332.06
2023-05-10T23:24:47.681Z,101332.15
2023-05-10T23:27:15.163Z,101328.61
2023-05-10T23:29:43.458Z,101328.04
2023-05-10T23:32:11.903Z,101328.70
2023-05-10T23:34:39.324Z,101326.55
2023-05-10T23:37:07.661Z,101324.59
2023-05-10T23:39:35.990Z,101324.19
2023-05-10T23:42:04.581Z,101326.41
2023-05-10T23:44:32.865Z,101326.52
2023-05-10T23:47:01.209Z,101323.10
2023-05-10T23:49:29.511Z,101323.34
2023-05-10T23:51:57.851Z,101322.58
2023-05-10T23:54:25.348Z,101325.80
2023-05-10T23:56:53.723Z,101325.77
2023-05-10T23:59:21.185Z,101320.30
